sensor_id;sensor_type;location;lat;lon;timestamp;P1;durP1;ratioP1;P2;durP2;ratioP2
17598;SDS011;8918;52.092;5.232;2023-06-19T00:00:10;11.00;;;9.05;;
17598;SDS011;8918;52.092;5.232;2023-06-19T00:02:41;10.52;;;9.50;;
17598;SDS011;8918;52.092;5.232;2023-06-19T00:05:07;10.90;;;9.55;;
17598;SDS011;8918;52.092;5.232;2023-06-19T00:07:37;10.30;;;9.30;;
17598;SDS011;8918;52.092;5.232;2023-06-19T00:10:03;12.38;;;10.10;;
17598;SDS011;8918;52.092;5.232;2023-06-19T00:12:29;13.73;;;10.30;;
17598;SDS011;8918;52.092;5.232;2023-06-19T00:14:55;10.48;;;9.38;;
17598;SDS011;8918;52.092;5.232;2023-06-19T00:17:21;13.07;;;9.73;;
17598;SDS011;8918;52.092;5.232;2023-06-19T00:19:47;13.80;;;10.60;;
17598;SDS011;8918;52.092;5.232;2023-06-19T00:22:13;12.27;;;9.73;;
17598;SDS011;8918;52.092;5.232;2023-06-19T00:24:40;11.32;;;10.05;;
17598;SDS011;8918;52.092;5.232;2023-06-19T00:27:05;11.57;;;9.25;;
17598;SDS011;8918;52.092;5.232;2023-06-19T00:29:31;12.63;;;10.10;;
17598;SDS011;8918;52.092;5.232;2023-06-19T00:31:58;13.68;;;10.40;;
17598;SDS011;8918;52.092;5.232;2023-06-19T00:34:24;11.13;;;9.80;;
17598;SDS011;8918;52.092;5.232;2023-06-19T00:36:53;10.80;;;9.55;;
17598;SDS011;8918;52.092;5.232;2023-06-19T00:39:24;11.50;;;9.40;;
17598;SDS011;8918;52.092;5.232;2023-06-19T00:41:51;12.32;;;9.77;;
17598;SDS011;8918;52.092;5.232;2023-06-19T00:44:17;10.38;;;8.75;;
17598;SDS011;8918;52.092;5.232;2023-06-19T00:46:43;10.65;;;7.95;;
17598;SDS011;8918;52.092;5.232;2023-06-19T00:49:08;7.93;;;6.72;;
17598;SDS011;8918;52.092;5.232;2023-06-19T00:51:34;8.40;;;6.15;;
17598;SDS011;8918;52.092;5.232;2023-06-19T00:54:00;7.60;;;5.75;;
17598;SDS011;8918;52.092;5.232;2023-06-19T00:56:25;7.18;;;4.70;;
17598;SDS011;8918;52.092;5.232;2023-06-19T00:58:52;4.68;;;4.03;;
17598;SDS011;8918;52.092;5.232;2023-06-19T01:01:19;5.45;;;3.65;;
17598;SDS011;8918;52.092;5.232;2023-06-19T01:03:46;3.92;;;3.53;;
17598;SDS011;8918;52.092;5.232;2023-06-19T01:06:22;5.82;;;3.47;;
17598;SDS011;8918;52.092;5.232;2023-06-19T01:11:29;6.20;;;3.15;;
17598;SDS011;8918;52.092;5.232;2023-06-19T01:14:09;3.58;;;2.90;;
17598;SDS011;8918;52.092;5.232;2023-06-19T01:16:40;5.75;;;2.80;;
17598;SDS011;8918;52.092;5.232;2023-06-19T01:19:08;3.75;;;2.63;;
17598;SDS011;8918;52.092;5.232;2023-06-19T01:21:35;4.03;;;2.55;;
17598;SDS011;8918;52.092;5.232;2023-06-19T01:24:02;3.38;;;2.83;;
17598;SDS011;8918;52.092;5.232;2023-06-19T01:26:28;4.05;;;2.70;;
17598;SDS011;8918;52.092;5.232;2023-06-19T01:28:54;4.18;;;2.72;;
17598;SDS011;8918;52.092;5.232;2023-06-19T01:31:21;4.80;;;2.55;;
17598;SDS011;8918;52.092;5.232;2023-06-19T01:33:52;5.40;;;3.00;;
17598;SDS011;8918;52.092;5.232;2023-06-19T01:36:21;5.32;;;2.80;;
17598;SDS011;8918;52.092;5.232;2023-06-19T01:38:49;3.45;;;2.58;;
17598;SDS011;8918;52.092;5.232;2023-06-19T01:41:16;4.57;;;2.50;;
17598;SDS011;8918;52.092;5.232;2023-06-19T01:43:44;2.60;;;2.35;;
17598;SDS011;8918;52.092;5.232;2023-06-19T01:46:11;4.10;;;2.60;;
17598;SDS011;8918;52.092;5.232;2023-06-19T01:48:37;4.80;;;2.60;;
17598;SDS011;8918;52.092;5.232;2023-06-19T01:51:04;3.25;;;2.70;;
17598;SDS011;8918;52.092;5.232;2023-06-19T01:53:30;6.97;;;2.60;;
17598;SDS011;8918;52.092;5.232;2023-06-19T01:55:56;3.30;;;2.80;;
17598;SDS011;8918;52.092;5.232;2023-06-19T01:58:23;5.40;;;3.08;;
17598;SDS011;8918;52.092;5.232;2023-06-19T02:00:48;4.72;;;3.30;;
17598;SDS011;8918;52.092;5.232;2023-06-19T02:03:14;5.72;;;2.92;;
17598;SDS011;8918;52.092;5.232;2023-06-19T02:05:39;3.80;;;3.10;;
17598;SDS011;8918;52.092;5.232;2023-06-19T02:08:05;4.72;;;2.95;;
17598;SDS011;8918;52.092;5.232;2023-06-19T02:10:31;5.05;;;3.25;;
17598;SDS011;8918;52.092;5.232;2023-06-19T02:12:57;5.07;;;3.47;;
17598;SDS011;8918;52.092;5.232;2023-06-19T02:15:23;5.63;;;3.67;;
17598;SDS011;8918;52.092;5.232;2023-06-19T02:17:48;3.63;;;3.33;;
17598;SDS011;8918;52.092;5.232;2023-06-19T02:20:14;6.22;;;3.50;;
17598;SDS011;8918;52.092;5.232;2023-06-19T02:22:40;5.20;;;3.72;;
17598;SDS011;8918;52.092;5.232;2023-06-19T02:25:06;3.95;;;3.55;;
17598;SDS011;8918;52.092;5.232;2023-06-19T02:27:32;5.10;;;3.90;;
17598;SDS011;8918;52.092;5.232;2023-06-19T02:29:58;4.32;;;3.85;;
17598;SDS011;8918;52.092;5.232;2023-06-19T02:32:23;4.30;;;3.90;;
17598;SDS011;8918;52.092;5.232;2023-06-19T02:34:49;4.75;;;3.95;;
17598;SDS011;8918;52.092;5.232;2023-06-19T02:37:15;5.07;;;4.10;;
17598;SDS011;8918;52.092;5.232;2023-06-19T02:39:40;4.90;;;4.40;;
17598;SDS011;8918;52.092;5.232;2023-06-19T02:42:06;6.90;;;4.32;;
17598;SDS011;8918;52.092;5.232;2023-06-19T02:44:32;6.13;;;4.22;;
17598;SDS011;8918;52.092;5.232;2023-06-19T02:46:57;5.53;;;4.18;;
17598;SDS011;8918;52.092;5.232;2023-06-19T02:49:23;4.60;;;4.07;;
17598;SDS011;8918;52.092;5.232;2023-06-19T02:51:48;4.43;;;4.03;;
17598;SDS011;8918;52.092;5.232;2023-06-19T02:54:14;4.82;;;4.28;;
17598;SDS011;8918;52.092;5.232;2023-06-19T02:56:39;7.00;;;4.75;;
17598;SDS011;8918;52.092;5.232;2023-06-19T02:59:05;4.80;;;4.40;;
17598;SDS011;8918;52.092;5.232;2023-06-19T03:01:31;5.68;;;4.07;;
17598;SDS011;8918;52.092;5.232;2023-06-19T03:03:56;5.07;;;4.57;;
17598;SDS011;8918;52.092;5.232;2023-06-19T03:06:22;5.80;;;4.57;;
17598;SDS011;8918;52.092;5.232;2023-06-19T03:08:47;6.35;;;4.28;;
17598;SDS011;8918;52.092;5.232;2023-06-19T03:11:13;5.85;;;5.00;;
17598;SDS011;8918;52.092;5.232;2023-06-19T03:13:50;5.63;;;5.13;;
17598;SDS011;8918;52.092;5.232;2023-06-19T03:16:16;6.07;;;5.47;;
17598;SDS011;8918;52.092;5.232;2023-06-19T03:18:42;8.05;;;6.10;;
17598;SDS011;8918;52.092;5.232;2023-06-19T03:21:10;6.25;;;5.53;;
17598;SDS011;8918;52.092;5.232;2023-06-19T03:23:38;6.40;;;5.80;;
17598;SDS011;8918;52.092;5.232;2023-06-19T03:26:06;7.13;;;5.72;;
17598;SDS011;8918;52.092;5.232;2023-06-19T03:28:32;7.05;;;6.03;;
17598;SDS011;8918;52.092;5.232;2023-06-19T03:30:58;7.40;;;5.95;;
17598;SDS011;8918;52.092;5.232;2023-06-19T03:33:23;7.10;;;6.40;;
17598;SDS011;8918;52.092;5.232;2023-06-19T03:35:49;7.97;;;6.88;;
17598;SDS011;8918;52.092;5.232;2023-06-19T03:38:15;8.88;;;7.63;;
17598;SDS011;8918;52.092;5.232;2023-06-19T03:40:40;7.75;;;6.95;;
17598;SDS011;8918;52.092;5.232;2023-06-19T03:43:06;10.00;;;7.68;;
17598;SDS011;8918;52.092;5.232;2023-06-19T03:45:31;10.70;;;9.60;;
17598;SDS011;8918;52.092;5.232;2023-06-19T03:47:57;9.40;;;8.25;;
17598;SDS011;8918;52.092;5.232;2023-06-19T03:50:22;10.75;;;9.43;;
17598;SDS011;8918;52.092;5.232;2023-06-19T03:52:48;12.00;;;10.18;;
17598;SDS011;8918;52.092;5.232;2023-06-19T03:55:13;11.68;;;10.48;;
17598;SDS011;8918;52.092;5.232;2023-06-19T03:57:39;13.90;;;11.02;;
17598;SDS011;8918;52.092;5.232;2023-06-19T04:00:05;15.70;;;12.27;;
17598;SDS011;8918;52.092;5.232;2023-06-19T04:02:32;14.65;;;12.35;;
17598;SDS011;8918;52.092;5.232;2023-06-19T04:04:59;15.82;;;12.65;;
17598;SDS011;8918;52.092;5.232;2023-06-19T04:07:24;16.17;;;12.57;;
17598;SDS011;8918;52.092;5.232;2023-06-19T04:09:50;15.40;;;11.65;;
17598;SDS011;8918;52.092;5.232;2023-06-19T04:12:15;14.02;;;11.05;;
17598;SDS011;8918;52.092;5.232;2023-06-19T04:14:41;14.18;;;10.88;;
17598;SDS011;8918;52.092;5.232;2023-06-19T04:17:06;13.15;;;11.25;;
17598;SDS011;8918;52.092;5.232;2023-06-19T04:19:32;13.95;;;11.45;;
17598;SDS011;8918;52.092;5.232;2023-06-19T04:21:57;14.75;;;11.50;;
17598;SDS011;8918;52.092;5.232;2023-06-19T04:24:23;17.85;;;14.43;;
17598;SDS011;8918;52.092;5.232;2023-06-19T04:26:48;16.00;;;14.27;;
17598;SDS011;8918;52.092;5.232;2023-06-19T04:29:14;15.65;;;13.95;;
17598;SDS011;8918;52.092;5.232;2023-06-19T04:31:43;15.48;;;13.45;;
17598;SDS011;8918;52.092;5.232;2023-06-19T04:34:17;14.68;;;12.90;;
17598;SDS011;8918;52.092;5.232;2023-06-19T04:36:49;15.07;;;11.90;;
17598;SDS011;8918;52.092;5.232;2023-06-19T04:39:14;13.60;;;11.18;;
17598;SDS011;8918;52.092;5.232;2023-06-19T04:41:41;11.27;;;9.45;;
17598;SDS011;8918;52.092;5.232;2023-06-19T04:44:09;9.57;;;7.32;;
17598;SDS011;8918;52.092;5.232;2023-06-19T04:46:36;7.95;;;6.20;;
17598;SDS011;8918;52.092;5.232;2023-06-19T04:49:03;7.38;;;5.50;;
17598;SDS011;8918;52.092;5.232;2023-06-19T04:51:29;5.65;;;4.53;;
17598;SDS011;8918;52.092;5.232;2023-06-19T04:53:56;5.95;;;3.45;;
17598;SDS011;8918;52.092;5.232;2023-06-19T04:56:22;13.98;;;5.70;;
17598;SDS011;8918;52.092;5.232;2023-06-19T04:58:47;5.80;;;3.25;;
17598;SDS011;8918;52.092;5.232;2023-06-19T05:01:14;4.90;;;3.45;;
17598;SDS011;8918;52.092;5.232;2023-06-19T05:03:40;6.63;;;3.22;;
17598;SDS011;8918;52.092;5.232;2023-06-19T05:06:11;5.00;;;2.80;;
17598;SDS011;8918;52.092;5.232;2023-06-19T05:08:36;4.22;;;2.65;;
17598;SDS011;8918;52.092;5.232;2023-06-19T05:11:02;2.55;;;2.28;;
17598;SDS011;8918;52.092;5.232;2023-06-19T05:13:28;3.70;;;2.90;;
17598;SDS011;8918;52.092;5.232;2023-06-19T05:15:53;4.13;;;3.00;;
17598;SDS011;8918;52.092;5.232;2023-06-19T05:18:21;2.30;;;2.10;;
17598;SDS011;8918;52.092;5.232;2023-06-19T05:20:46;4.38;;;2.72;;
17598;SDS011;8918;52.092;5.232;2023-06-19T05:23:12;4.30;;;3.00;;
17598;SDS011;8918;52.092;5.232;2023-06-19T05:25:37;3.05;;;2.75;;
17598;SDS011;8918;52.092;5.232;2023-06-19T05:28:03;3.17;;;2.75;;
17598;SDS011;8918;52.092;5.232;2023-06-19T05:30:29;4.97;;;3.80;;
17598;SDS011;8918;52.092;5.232;2023-06-19T05:32:54;4.10;;;3.47;;
17598;SDS011;8918;52.092;5.232;2023-06-19T05:35:20;5.78;;;3.95;;
17598;SDS011;8918;52.092;5.232;2023-06-19T05:37:46;7.82;;;4.20;;
17598;SDS011;8918;52.092;5.232;2023-06-19T05:40:12;5.22;;;4.25;;
17598;SDS011;8918;52.092;5.232;2023-06-19T05:42:39;5.40;;;4.60;;
17598;SDS011;8918;52.092;5.232;2023-06-19T05:45:05;6.60;;;5.40;;
17598;SDS011;8918;52.092;5.232;2023-06-19T05:47:31;7.38;;;6.13;;
17598;SDS011;8918;52.092;5.232;2023-06-19T05:49:57;6.60;;;5.78;;
17598;SDS011;8918;52.092;5.232;2023-06-19T05:52:23;9.00;;;6.10;;
17598;SDS011;8918;52.092;5.232;2023-06-19T05:54:48;7.35;;;6.35;;
17598;SDS011;8918;52.092;5.232;2023-06-19T05:57:14;6.90;;;6.10;;
17598;SDS011;8918;52.092;5.232;2023-06-19T05:59:46;7.13;;;6.40;;
17598;SDS011;8918;52.092;5.232;2023-06-19T06:02:12;9.82;;;6.93;;
17598;SDS011;8918;52.092;5.232;2023-06-19T06:04:37;7.75;;;6.22;;
17598;SDS011;8918;52.092;5.232;2023-06-19T06:07:03;8.95;;;6.18;;
17598;SDS011;8918;52.092;5.232;2023-06-19T06:09:29;6.97;;;6.28;;
17598;SDS011;8918;52.092;5.232;2023-06-19T06:11:54;6.90;;;5.75;;
17598;SDS011;8918;52.092;5.232;2023-06-19T06:14:20;6.60;;;5.50;;
17598;SDS011;8918;52.092;5.232;2023-06-19T06:16:45;6.70;;;5.95;;
17598;SDS011;8918;52.092;5.232;2023-06-19T06:19:11;7.68;;;5.90;;
17598;SDS011;8918;52.092;5.232;2023-06-19T06:21:36;7.75;;;6.15;;
17598;SDS011;8918;52.092;5.232;2023-06-19T06:24:02;7.15;;;6.45;;
17598;SDS011;8918;52.092;5.232;2023-06-19T06:26:28;8.73;;;6.65;;
17598;SDS011;8918;52.092;5.232;2023-06-19T06:28:54;9.85;;;7.50;;
17598;SDS011;8918;52.092;5.232;2023-06-19T06:31:21;9.00;;;7.50;;
17598;SDS011;8918;52.092;5.232;2023-06-19T06:33:48;7.45;;;6.53;;
17598;SDS011;8918;52.092;5.232;2023-06-19T06:36:16;7.18;;;6.38;;
17598;SDS011;8918;52.092;5.232;2023-06-19T06:38:42;8.05;;;7.25;;
17598;SDS011;8918;52.092;5.232;2023-06-19T06:41:08;8.18;;;6.70;;
17598;SDS011;8918;52.092;5.232;2023-06-19T06:43:34;11.20;;;8.75;;
17598;SDS011;8918;52.092;5.232;2023-06-19T06:45:59;11.60;;;9.73;;
17598;SDS011;8918;52.092;5.232;2023-06-19T06:48:25;13.20;;;10.73;;
17598;SDS011;8918;52.092;5.232;2023-06-19T06:50:51;12.27;;;10.32;;
17598;SDS011;8918;52.092;5.232;2023-06-19T06:53:24;16.00;;;12.20;;
17598;SDS011;8918;52.092;5.232;2023-06-19T06:55:50;13.27;;;11.68;;
17598;SDS011;8918;52.092;5.232;2023-06-19T06:58:16;14.15;;;11.70;;
17598;SDS011;8918;52.092;5.232;2023-06-19T07:00:43;13.00;;;11.38;;
17598;SDS011;8918;52.092;5.232;2023-06-19T07:03:09;15.23;;;12.27;;
17598;SDS011;8918;52.092;5.232;2023-06-19T07:05:35;16.75;;;13.65;;
17598;SDS011;8918;52.092;5.232;2023-06-19T07:08:00;15.20;;;13.60;;
17598;SDS011;8918;52.092;5.232;2023-06-19T07:10:26;16.80;;;12.75;;
17598;SDS011;8918;52.092;5.232;2023-06-19T07:12:51;14.32;;;12.82;;
17598;SDS011;8918;52.092;5.232;2023-06-19T07:15:17;17.35;;;13.65;;
17598;SDS011;8918;52.092;5.232;2023-06-19T07:17:43;16.02;;;12.80;;
17598;SDS011;8918;52.092;5.232;2023-06-19T07:20:09;13.27;;;11.23;;
17598;SDS011;8918;52.092;5.232;2023-06-19T07:22:35;15.45;;;11.68;;
17598;SDS011;8918;52.092;5.232;2023-06-19T07:25:01;12.20;;;10.77;;
17598;SDS011;8918;52.092;5.232;2023-06-19T07:27:28;14.70;;;11.48;;
17598;SDS011;8918;52.092;5.232;2023-06-19T07:29:54;12.75;;;11.35;;
17598;SDS011;8918;52.092;5.232;2023-06-19T07:32:20;12.70;;;10.50;;
17598;SDS011;8918;52.092;5.232;2023-06-19T07:34:45;13.80;;;10.98;;
17598;SDS011;8918;52.092;5.232;2023-06-19T07:37:11;12.80;;;11.00;;
17598;SDS011;8918;52.092;5.232;2023-06-19T07:39:42;14.70;;;12.27;;
17598;SDS011;8918;52.092;5.232;2023-06-19T07:42:09;12.25;;;10.95;;
17598;SDS011;8918;52.092;5.232;2023-06-19T07:44:35;15.23;;;12.93;;
17598;SDS011;8918;52.092;5.232;2023-06-19T07:47:01;17.90;;;15.23;;
17598;SDS011;8918;52.092;5.232;2023-06-19T07:49:26;19.83;;;15.35;;
17598;SDS011;8918;52.092;5.232;2023-06-19T07:51:52;17.15;;;15.02;;
17598;SDS011;8918;52.092;5.232;2023-06-19T07:54:18;17.88;;;15.48;;
17598;SDS011;8918;52.092;5.232;2023-06-19T07:56:43;19.25;;;15.35;;
17598;SDS011;8918;52.092;5.232;2023-06-19T07:59:09;18.13;;;15.23;;
17598;SDS011;8918;52.092;5.232;2023-06-19T08:01:34;18.88;;;15.38;;
17598;SDS011;8918;52.092;5.232;2023-06-19T08:04:00;19.42;;;16.00;;
17598;SDS011;8918;52.092;5.232;2023-06-19T08:06:25;20.58;;;17.40;;
17598;SDS011;8918;52.092;5.232;2023-06-19T08:08:51;18.00;;;16.02;;
17598;SDS011;8918;52.092;5.232;2023-06-19T08:11:17;22.30;;;16.88;;
17598;SDS011;8918;52.092;5.232;2023-06-19T08:13:42;19.27;;;15.50;;
17598;SDS011;8918;52.092;5.232;2023-06-19T08:16:08;19.17;;;14.93;;
17598;SDS011;8918;52.092;5.232;2023-06-19T08:18:35;22.35;;;16.95;;
17598;SDS011;8918;52.092;5.232;2023-06-19T08:21:01;22.02;;;15.60;;
17598;SDS011;8918;52.092;5.232;2023-06-19T08:23:26;19.85;;;16.40;;
17598;SDS011;8918;52.092;5.232;2023-06-19T08:25:52;19.55;;;16.52;;
17598;SDS011;8918;52.092;5.232;2023-06-19T08:28:17;19.23;;;16.50;;
17598;SDS011;8918;52.092;5.232;2023-06-19T08:30:44;22.35;;;18.20;;
17598;SDS011;8918;52.092;5.232;2023-06-19T08:33:10;23.13;;;17.35;;
17598;SDS011;8918;52.092;5.232;2023-06-19T08:35:37;20.08;;;17.23;;
17598;SDS011;8918;52.092;5.232;2023-06-19T08:38:03;21.90;;;17.42;;
17598;SDS011;8918;52.092;5.232;2023-06-19T08:40:29;20.73;;;17.90;;
17598;SDS011;8918;52.092;5.232;2023-06-19T08:42:54;22.05;;;17.80;;
17598;SDS011;8918;52.092;5.232;2023-06-19T08:45:21;20.50;;;17.63;;
17598;SDS011;8918;52.092;5.232;2023-06-19T08:47:47;22.35;;;19.95;;
17598;SDS011;8918;52.092;5.232;2023-06-19T08:50:14;21.55;;;18.88;;
17598;SDS011;8918;52.092;5.232;2023-06-19T08:52:44;21.75;;;18.95;;
17598;SDS011;8918;52.092;5.232;2023-06-19T08:55:09;21.27;;;18.58;;
17598;SDS011;8918;52.092;5.232;2023-06-19T08:57:38;22.83;;;19.20;;
17598;SDS011;8918;52.092;5.232;2023-06-19T09:00:04;21.63;;;18.00;;
17598;SDS011;8918;52.092;5.232;2023-06-19T09:03:06;21.52;;;19.02;;
17598;SDS011;8918;52.092;5.232;2023-06-19T09:05:29;22.48;;;18.95;;
17598;SDS011;8918;52.092;5.232;2023-06-19T09:07:56;21.80;;;18.92;;
17598;SDS011;8918;52.092;5.232;2023-06-19T09:10:25;24.75;;;20.35;;
17598;SDS011;8918;52.092;5.232;2023-06-19T09:12:58;21.48;;;18.08;;
17598;SDS011;8918;52.092;5.232;2023-06-19T09:15:28;24.17;;;19.45;;
17598;SDS011;8918;52.092;5.232;2023-06-19T09:20:30;21.65;;;19.00;;
17598;SDS011;8918;52.092;5.232;2023-06-19T09:22:58;22.52;;;19.02;;
17598;SDS011;8918;52.092;5.232;2023-06-19T09:25:24;22.27;;;18.00;;
17598;SDS011;8918;52.092;5.232;2023-06-19T09:27:52;23.20;;;18.23;;
17598;SDS011;8918;52.092;5.232;2023-06-19T09:30:21;23.88;;;19.30;;
17598;SDS011;8918;52.092;5.232;2023-06-19T09:32:47;22.05;;;18.23;;
17598;SDS011;8918;52.092;5.232;2023-06-19T09:35:13;21.75;;;18.17;;
17598;SDS011;8918;52.092;5.232;2023-06-19T09:37:39;24.73;;;18.20;;
17598;SDS011;8918;52.092;5.232;2023-06-19T09:40:06;23.38;;;17.15;;
17598;SDS011;8918;52.092;5.232;2023-06-19T09:42:36;21.15;;;16.45;;
17598;SDS011;8918;52.092;5.232;2023-06-19T09:45:07;25.30;;;18.70;;
17598;SDS011;8918;52.092;5.232;2023-06-19T09:47:36;21.60;;;18.08;;
17598;SDS011;8918;52.092;5.232;2023-06-19T09:50:12;25.17;;;19.23;;
17598;SDS011;8918;52.092;5.232;2023-06-19T09:52:40;20.92;;;17.17;;
17598;SDS011;8918;52.092;5.232;2023-06-19T09:55:07;19.40;;;15.80;;
17598;SDS011;8918;52.092;5.232;2023-06-19T09:57:35;19.60;;;16.38;;
17598;SDS011;8918;52.092;5.232;2023-06-19T10:00:03;19.17;;;14.00;;
17598;SDS011;8918;52.092;5.232;2023-06-19T10:02:51;16.70;;;14.02;;
17598;SDS011;8918;52.092;5.232;2023-06-19T10:05:16;16.90;;;14.85;;
17598;SDS011;8918;52.092;5.232;2023-06-19T10:07:52;19.35;;;15.68;;
17598;SDS011;8918;52.092;5.232;2023-06-19T10:10:22;18.02;;;16.10;;
17598;SDS011;8918;52.092;5.232;2023-06-19T10:12:49;18.80;;;16.20;;
17598;SDS011;8918;52.092;5.232;2023-06-19T10:15:22;20.48;;;18.00;;
17598;SDS011;8918;52.092;5.232;2023-06-19T10:17:50;18.52;;;16.50;;
17598;SDS011;8918;52.092;5.232;2023-06-19T10:20:40;22.95;;;18.67;;
17598;SDS011;8918;52.092;5.232;2023-06-19T10:23:05;22.27;;;19.50;;
17598;SDS011;8918;52.092;5.232;2023-06-19T10:25:33;27.65;;;19.42;;
17598;SDS011;8918;52.092;5.232;2023-06-19T10:28:00;22.30;;;18.45;;
17598;SDS011;8918;52.092;5.232;2023-06-19T10:30:26;19.77;;;17.10;;
17598;SDS011;8918;52.092;5.232;2023-06-19T10:32:54;19.48;;;16.73;;
17598;SDS011;8918;52.092;5.232;2023-06-19T10:35:20;19.33;;;17.13;;
17598;SDS011;8918;52.092;5.232;2023-06-19T10:37:49;20.15;;;16.95;;
17598;SDS011;8918;52.092;5.232;2023-06-19T10:40:16;20.23;;;16.20;;
17598;SDS011;8918;52.092;5.232;2023-06-19T10:42:42;18.90;;;14.90;;
17598;SDS011;8918;52.092;5.232;2023-06-19T10:45:12;18.05;;;15.48;;
17598;SDS011;8918;52.092;5.232;2023-06-19T10:47:39;18.45;;;15.80;;
17598;SDS011;8918;52.092;5.232;2023-06-19T10:50:14;18.75;;;15.20;;
17598;SDS011;8918;52.092;5.232;2023-06-19T10:52:44;22.38;;;15.88;;
17598;SDS011;8918;52.092;5.232;2023-06-19T10:55:11;18.77;;;16.40;;
17598;SDS011;8918;52.092;5.232;2023-06-19T10:57:37;18.48;;;16.50;;
17598;SDS011;8918;52.092;5.232;2023-06-19T11:00:04;20.58;;;16.52;;
17598;SDS011;8918;52.092;5.232;2023-06-19T11:02:42;19.02;;;17.02;;
17598;SDS011;8918;52.092;5.232;2023-06-19T11:05:09;19.33;;;16.98;;
17598;SDS011;8918;52.092;5.232;2023-06-19T11:07:36;18.05;;;16.15;;
17598;SDS011;8918;52.092;5.232;2023-06-19T11:10:02;17.48;;;15.68;;
17598;SDS011;8918;52.092;5.232;2023-06-19T11:12:30;19.42;;;17.42;;
17598;SDS011;8918;52.092;5.232;2023-06-19T11:14:56;17.45;;;15.70;;
17598;SDS011;8918;52.092;5.232;2023-06-19T11:17:22;15.32;;;13.70;;
17598;SDS011;8918;52.092;5.232;2023-06-19T11:19:48;18.45;;;14.35;;
17598;SDS011;8918;52.092;5.232;2023-06-19T11:22:15;17.33;;;13.95;;
17598;SDS011;8918;52.092;5.232;2023-06-19T11:24:44;15.60;;;13.95;;
17598;SDS011;8918;52.092;5.232;2023-06-19T11:27:18;14.75;;;13.25;;
17598;SDS011;8918;52.092;5.232;2023-06-19T11:29:54;17.77;;;15.93;;
17598;SDS011;8918;52.092;5.232;2023-06-19T11:32:23;23.92;;;15.90;;
17598;SDS011;8918;52.092;5.232;2023-06-19T11:34:55;18.20;;;15.32;;
17598;SDS011;8918;52.092;5.232;2023-06-19T11:37:22;17.67;;;15.88;;
17598;SDS011;8918;52.092;5.232;2023-06-19T11:39:48;17.95;;;16.02;;
17598;SDS011;8918;52.092;5.232;2023-06-19T11:42:15;14.77;;;13.30;;
17598;SDS011;8918;52.092;5.232;2023-06-19T11:47:31;15.60;;;14.00;;
17598;SDS011;8918;52.092;5.232;2023-06-19T11:49:57;15.45;;;13.70;;
17598;SDS011;8918;52.092;5.232;2023-06-19T11:52:23;14.60;;;12.65;;
17598;SDS011;8918;52.092;5.232;2023-06-19T11:54:49;15.27;;;13.65;;
17598;SDS011;8918;52.092;5.232;2023-06-19T11:57:14;17.00;;;15.20;;
17598;SDS011;8918;52.092;5.232;2023-06-19T11:59:41;17.63;;;15.15;;
17598;SDS011;8918;52.092;5.232;2023-06-19T12:02:07;14.55;;;13.05;;
17598;SDS011;8918;52.092;5.232;2023-06-19T12:04:34;14.05;;;12.55;;
17598;SDS011;8918;52.092;5.232;2023-06-19T12:07:00;18.98;;;15.35;;
17598;SDS011;8918;52.092;5.232;2023-06-19T12:09:26;21.17;;;12.25;;
17598;SDS011;8918;52.092;5.232;2023-06-19T12:11:52;13.65;;;12.32;;
17598;SDS011;8918;52.092;5.232;2023-06-19T12:14:18;13.82;;;11.60;;
17598;SDS011;8918;52.092;5.232;2023-06-19T12:16:47;16.80;;;13.63;;
17598;SDS011;8918;52.092;5.232;2023-06-19T12:19:13;13.63;;;12.23;;
17598;SDS011;8918;52.092;5.232;2023-06-19T12:21:39;15.15;;;12.93;;
17598;SDS011;8918;52.092;5.232;2023-06-19T12:24:05;23.88;;;12.88;;
17598;SDS011;8918;52.092;5.232;2023-06-19T12:26:30;15.55;;;13.70;;
17598;SDS011;8918;52.092;5.232;2023-06-19T12:29:01;14.48;;;12.95;;
17598;SDS011;8918;52.092;5.232;2023-06-19T12:31:28;13.32;;;11.95;;
17598;SDS011;8918;52.092;5.232;2023-06-19T12:33:54;14.60;;;13.20;;
17598;SDS011;8918;52.092;5.232;2023-06-19T12:36:19;14.35;;;12.80;;
17598;SDS011;8918;52.092;5.232;2023-06-19T12:38:45;13.15;;;11.55;;
17598;SDS011;8918;52.092;5.232;2023-06-19T12:41:12;13.70;;;11.32;;
17598;SDS011;8918;52.092;5.232;2023-06-19T12:43:38;13.70;;;12.30;;
17598;SDS011;8918;52.092;5.232;2023-06-19T12:46:03;15.15;;;13.27;;
17598;SDS011;8918;52.092;5.232;2023-06-19T12:48:29;13.93;;;11.70;;
17598;SDS011;8918;52.092;5.232;2023-06-19T12:50:55;13.45;;;12.00;;
17598;SDS011;8918;52.092;5.232;2023-06-19T12:53:20;10.60;;;9.48;;
17598;SDS011;8918;52.092;5.232;2023-06-19T12:55:51;13.52;;;11.48;;
17598;SDS011;8918;52.092;5.232;2023-06-19T12:58:21;12.70;;;11.40;;
17598;SDS011;8918;52.092;5.232;2023-06-19T13:00:47;13.35;;;11.95;;
17598;SDS011;8918;52.092;5.232;2023-06-19T13:03:12;11.40;;;9.38;;
17598;SDS011;8918;52.092;5.232;2023-06-19T13:05:38;12.00;;;10.05;;
17598;SDS011;8918;52.092;5.232;2023-06-19T13:08:03;11.32;;;10.18;;
17598;SDS011;8918;52.092;5.232;2023-06-19T13:10:29;12.73;;;10.13;;
17598;SDS011;8918;52.092;5.232;2023-06-19T13:12:54;12.00;;;10.80;;
17598;SDS011;8918;52.092;5.232;2023-06-19T13:15:23;12.05;;;10.88;;
17598;SDS011;8918;52.092;5.232;2023-06-19T13:17:48;12.73;;;11.27;;
17598;SDS011;8918;52.092;5.232;2023-06-19T13:20:14;13.05;;;11.30;;
17598;SDS011;8918;52.092;5.232;2023-06-19T13:22:40;11.65;;;10.45;;
17598;SDS011;8918;52.092;5.232;2023-06-19T13:25:06;11.13;;;10.02;;
17598;SDS011;8918;52.092;5.232;2023-06-19T13:27:32;11.82;;;10.52;;
17598;SDS011;8918;52.092;5.232;2023-06-19T13:29:57;11.32;;;10.00;;
17598;SDS011;8918;52.092;5.232;2023-06-19T13:32:24;11.68;;;10.15;;
17598;SDS011;8918;52.092;5.232;2023-06-19T13:34:50;12.40;;;11.15;;
17598;SDS011;8918;52.092;5.232;2023-06-19T13:37:15;11.23;;;10.02;;
17598;SDS011;8918;52.092;5.232;2023-06-19T13:39:41;12.77;;;9.75;;
17598;SDS011;8918;52.092;5.232;2023-06-19T13:42:07;9.95;;;8.90;;
17598;SDS011;8918;52.092;5.232;2023-06-19T13:44:32;9.82;;;7.93;;
17598;SDS011;8918;52.092;5.232;2023-06-19T13:46:58;10.65;;;8.00;;
17598;SDS011;8918;52.092;5.232;2023-06-19T13:49:23;11.23;;;8.25;;
17598;SDS011;8918;52.092;5.232;2023-06-19T13:51:49;10.35;;;8.30;;
17598;SDS011;8918;52.092;5.232;2023-06-19T13:54:15;10.70;;;8.27;;
17598;SDS011;8918;52.092;5.232;2023-06-19T13:56:41;8.43;;;7.63;;
17598;SDS011;8918;52.092;5.232;2023-06-19T13:59:07;10.23;;;8.27;;
17598;SDS011;8918;52.092;5.232;2023-06-19T14:01:33;9.82;;;8.65;;
17598;SDS011;8918;52.092;5.232;2023-06-19T14:03:59;9.20;;;8.30;;
17598;SDS011;8918;52.092;5.232;2023-06-19T14:06:24;10.65;;;9.55;;
17598;SDS011;8918;52.092;5.232;2023-06-19T14:08:50;9.63;;;8.38;;
17598;SDS011;8918;52.092;5.232;2023-06-19T14:11:17;9.05;;;8.15;;
17598;SDS011;8918;52.092;5.232;2023-06-19T14:13:43;8.95;;;8.05;;
17598;SDS011;8918;52.092;5.232;2023-06-19T14:16:09;10.35;;;7.93;;
17598;SDS011;8918;52.092;5.232;2023-06-19T14:18:34;8.25;;;7.32;;
17598;SDS011;8918;52.092;5.232;2023-06-19T14:21:01;8.68;;;7.80;;
17598;SDS011;8918;52.092;5.232;2023-06-19T14:23:27;8.40;;;7.13;;
17598;SDS011;8918;52.092;5.232;2023-06-19T14:25:53;10.00;;;7.65;;
17598;SDS011;8918;52.092;5.232;2023-06-19T14:28:18;8.40;;;7.35;;
17598;SDS011;8918;52.092;5.232;2023-06-19T14:30:44;9.55;;;7.60;;
17598;SDS011;8918;52.092;5.232;2023-06-19T14:33:09;9.57;;;7.00;;
17598;SDS011;8918;52.092;5.232;2023-06-19T14:35:40;9.65;;;7.47;;
17598;SDS011;8918;52.092;5.232;2023-06-19T14:38:11;9.13;;;7.10;;
17598;SDS011;8918;52.092;5.232;2023-06-19T14:40:38;9.13;;;8.07;;
17598;SDS011;8918;52.092;5.232;2023-06-19T14:43:04;8.63;;;7.72;;
17598;SDS011;8918;52.092;5.232;2023-06-19T14:45:30;9.20;;;6.93;;
17598;SDS011;8918;52.092;5.232;2023-06-19T14:47:56;8.38;;;7.00;;
17598;SDS011;8918;52.092;5.232;2023-06-19T14:50:22;9.00;;;7.15;;